sensor_id;sensor_type;location;lat;lon;timestamp;pressure;altitude;pressure_sealevel;temperature;humidity
5879;BME280;2965;42.640;23.370;2022-09-09T00:01:34;94748.44;;;17.61;100.00
5879;BME280;2965;42.640;23.370;2022-09-09T00:06:30;94725.44;;;17.61;100.00
5879;BME280;2965;42.640;23.370;2022-09-09T00:09:12;94730.72;;;17.61;100.00
5879;BME280;2965;42.640;23.370;2022-09-09T00:12:02;94738.91;;;17.60;100.00
5879;BME280;2965;42.640;23.370;2022-09-09T00:14:58;94740.97;;;17.58;100.00
5879;BME280;2965;42.640;23.370;2022-09-09T00:23:19;94739.31;;;17.57;100.00
5879;BME280;2965;42.640;23.370;2022-09-09T00:28:23;94723.41;;;17.45;100.00
5879;BME280;2965;42.640;23.370;2022-09-09T00:30:53;94721.13;;;17.49;100.00
5879;BME280;2965;42.640;23.370;2022-09-09T00:33:23;94720.09;;;17.50;100.00
5879;BME280;2965;42.640;23.370;2022-09-09T00:35:54;94727.56;;;17.53;100.00
5879;BME280;2965;42.640;23.370;2022-09-09T00:38:36;94714.94;;;17.55;100.00
5879;BME280;2965;42.640;23.370;2022-09-09T00:44:02;94702.03;;;17.47;100.00
5879;BME280;2965;42.640;23.370;2022-09-09T00:57:59;94696.59;;;17.23;100.00
5879;BME280;2965;42.640;23.370;2022-09-09T01:00:27;94696.50;;;17.30;100.00
5879;BME280;2965;42.640;23.370;2022-09-09T01:17:21;94695.25;;;16.96;100.00
5879;BME280;2965;42.640;23.370;2022-09-09T01:22:44;94696.66;;;17.17;100.00
5879;BME280;2965;42.640;23.370;2022-09-09T01:27:51;94693.06;;;17.11;100.00
5879;BME280;2965;42.640;23.370;2022-09-09T01:30:19;94695.97;;;17.03;100.00
5879;BME280;2965;42.640;23.370;2022-09-09T01:32:49;94687.47;;;17.01;100.00
5879;BME280;2965;42.640;23.370;2022-09-09T01:37:56;94707.16;;;17.05;100.00
5879;BME280;2965;42.640;23.370;2022-09-09T01:40:22;94709.03;;;16.98;100.00
5879;BME280;2965;42.640;23.370;2022-09-09T01:42:48;94705.44;;;16.92;100.00
5879;BME280;2965;42.640;23.370;2022-09-09T01:45:14;94712.25;;;17.00;100.00
5879;BME280;2965;42.640;23.370;2022-09-09T01:47:40;94710.13;;;16.65;100.00
5879;BME280;2965;42.640;23.370;2022-09-09T01:50:07;94714.38;;;16.66;100.00
5879;BME280;2965;42.640;23.370;2022-09-09T01:52:36;94707.22;;;16.73;100.00
5879;BME280;2965;42.640;23.370;2022-09-09T01:55:03;94712.91;;;16.70;100.00
5879;BME280;2965;42.640;23.370;2022-09-09T01:57:34;94721.28;;;16.67;100.00
5879;BME280;2965;42.640;23.370;2022-09-09T02:00:07;94719.22;;;16.69;100.00
5879;BME280;2965;42.640;23.370;2022-09-09T02:05:38;94719.50;;;16.61;100.00
5879;BME280;2965;42.640;23.370;2022-09-09T02:08:11;94716.84;;;16.61;100.00
5879;BME280;2965;42.640;23.370;2022-09-09T02:10:53;94705.09;;;16.57;100.00
5879;BME280;2965;42.640;23.370;2022-09-09T02:13:21;94698.38;;;16.61;100.00
5879;BME280;2965;42.640;23.370;2022-09-09T02:19:06;94715.34;;;16.72;100.00
5879;BME280;2965;42.640;23.370;2022-09-09T02:21:33;94705.00;;;16.70;100.00
5879;BME280;2965;42.640;23.370;2022-09-09T02:24:05;94682.94;;;16.58;100.00
5879;BME280;2965;42.640;23.370;2022-09-09T02:26:33;94685.44;;;16.53;100.00
5879;BME280;2965;42.640;23.370;2022-09-09T02:29:02;94689.09;;;16.52;100.00
5879;BME280;2965;42.640;23.370;2022-09-09T02:31:29;94689.84;;;16.59;100.00
5879;BME280;2965;42.640;23.370;2022-09-09T02:33:59;94694.81;;;16.49;100.00
5879;BME280;2965;42.640;23.370;2022-09-09T02:36:29;94700.84;;;16.56;100.00
5879;BME280;2965;42.640;23.370;2022-09-09T02:38:56;94689.69;;;16.54;100.00
5879;BME280;2965;42.640;23.370;2022-09-09T02:41:33;94704.03;;;16.64;100.00
5879;BME280;2965;42.640;23.370;2022-09-09T02:43:59;94705.25;;;16.62;100.00
5879;BME280;2965;42.640;23.370;2022-09-09T02:49:04;94705.38;;;16.49;100.00
5879;BME280;2965;42.640;23.370;2022-09-09T02:56:53;94724.09;;;16.40;100.00
5879;BME280;2965;42.640;23.370;2022-09-09T02:59:22;94714.75;;;16.45;100.00
5879;BME280;2965;42.640;23.370;2022-09-09T03:01:47;94712.41;;;16.55;100.00
5879;BME280;2965;42.640;23.370;2022-09-09T03:04:13;94704.50;;;16.55;100.00
5879;BME280;2965;42.640;23.370;2022-09-09T03:06:39;94706.28;;;16.61;100.00
5879;BME280;2965;42.640;23.370;2022-09-09T03:09:04;94715.41;;;16.65;100.00
5879;BME280;2965;42.640;23.370;2022-09-09T03:11:30;94717.59;;;16.75;100.00
5879;BME280;2965;42.640;23.370;2022-09-09T03:13:56;94714.94;;;16.75;100.00
5879;BME280;2965;42.640;23.370;2022-09-09T03:16:22;94719.19;;;16.76;100.00
5879;BME280;2965;42.640;23.370;2022-09-09T03:18:48;94721.25;;;16.74;100.00
5879;BME280;2965;42.640;23.370;2022-09-09T03:21:13;94724.31;;;16.64;100.00
5879;BME280;2965;42.640;23.370;2022-09-09T03:23:39;94707.75;;;16.57;100.00
5879;BME280;2965;42.640;23.370;2022-09-09T03:26:05;94718.88;;;16.59;100.00
5879;BME280;2965;42.640;23.370;2022-09-09T03:28:30;94718.09;;;16.58;100.00
5879;BME280;2965;42.640;23.370;2022-09-09T03:31:04;94708.59;;;16.51;100.00
5879;BME280;2965;42.640;23.370;2022-09-09T03:33:30;94721.09;;;16.62;100.00
5879;BME280;2965;42.640;23.370;2022-09-09T03:35:57;94719.41;;;16.74;100.00
5879;BME280;2965;42.640;23.370;2022-09-09T03:38:25;94717.78;;;16.73;100.00
5879;BME280;2965;42.640;23.370;2022-09-09T03:40:52;94712.56;;;16.60;100.00
5879;BME280;2965;42.640;23.370;2022-09-09T03:43:21;94712.56;;;16.60;100.00
5879;BME280;2965;42.640;23.370;2022-09-09T03:45:47;94714.38;;;16.66;100.00
5879;BME280;2965;42.640;23.370;2022-09-09T03:48:15;94708.59;;;16.51;100.00
5879;BME280;2965;42.640;23.370;2022-09-09T03:50:51;94726.44;;;16.55;100.00
5879;BME280;2965;42.640;23.370;2022-09-09T03:53:20;94720.34;;;16.55;100.00
5879;BME280;2965;42.640;23.370;2022-09-09T03:55:51;94703.91;;;16.53;100.00
5879;BME280;2965;42.640;23.370;2022-09-09T03:58:21;94697.47;;;16.42;100.00
5879;BME280;2965;42.640;23.370;2022-09-09T04:03:20;94715.28;;;16.53;100.00
5879;BME280;2965;42.640;23.370;2022-09-09T04:05:48;94719.91;;;16.58;100.00
5879;BME280;2965;42.640;23.370;2022-09-09T04:08:14;94732.97;;;16.53;100.00
5879;BME280;2965;42.640;23.370;2022-09-09T04:10:39;94717.16;;;16.46;100.00
5879;BME280;2965;42.640;23.370;2022-09-09T04:13:05;94724.44;;;16.51;100.00
5879;BME280;2965;42.640;23.370;2022-09-09T04:15:31;94735.00;;;16.51;100.00
5879;BME280;2965;42.640;23.370;2022-09-09T04:17:56;94724.44;;;16.51;100.00
5879;BME280;2965;42.640;23.370;2022-09-09T04:20:22;94713.97;;;16.37;100.00
5879;BME280;2965;42.640;23.370;2022-09-09T04:22:48;94718.34;;;16.50;100.00
5879;BME280;2965;42.640;23.370;2022-09-09T04:25:13;94714.63;;;16.58;100.00
5879;BME280;2965;42.640;23.370;2022-09-09T04:27:39;94721.97;;;16.56;100.00
5879;BME280;2965;42.640;23.370;2022-09-09T04:30:05;94720.34;;;16.55;100.00
5879;BME280;2965;42.640;23.370;2022-09-09T04:32:34;94726.44;;;16.55;100.00
5879;BME280;2965;42.640;23.370;2022-09-09T04:35:02;94727.41;;;16.61;100.00
5879;BME280;2965;42.640;23.370;2022-09-09T04:37:28;94715.59;;;16.63;100.00
5879;BME280;2965;42.640;23.370;2022-09-09T04:39:53;94718.31;;;16.57;100.00
5879;BME280;2965;42.640;23.370;2022-09-09T04:42:19;94725.97;;;16.65;100.00
5879;BME280;2965;42.640;23.370;2022-09-09T04:44:44;94740.56;;;16.68;100.00
5879;BME280;2965;42.640;23.370;2022-09-09T04:47:10;94740.78;;;16.66;100.00
5879;BME280;2965;42.640;23.370;2022-09-09T04:49:36;94745.38;;;16.77;100.00
5879;BME280;2965;42.640;23.370;2022-09-09T04:52:02;94731.19;;;16.78;100.00
5879;BME280;2965;42.640;23.370;2022-09-09T04:54:28;94718.16;;;16.77;100.00
5879;BME280;2965;42.640;23.370;2022-09-09T04:56:54;94718.97;;;16.77;100.00
5879;BME280;2965;42.640;23.370;2022-09-09T04:59:20;94715.31;;;16.78;100.00
5879;BME280;2965;42.640;23.370;2022-09-09T05:01:47;94700.94;;;16.74;100.00
5879;BME280;2965;42.640;23.370;2022-09-09T05:04:12;94700.47;;;16.77;100.00
5879;BME280;2965;42.640;23.370;2022-09-09T05:06:38;94701.25;;;16.84;100.00
5879;BME280;2965;42.640;23.370;2022-09-09T05:09:03;94702.56;;;16.94;100.00
5879;BME280;2965;42.640;23.370;2022-09-09T05:11:30;94689.97;;;16.96;100.00
5879;BME280;2965;42.640;23.370;2022-09-09T05:13:57;94696.78;;;17.03;100.00
5879;BME280;2965;42.640;23.370;2022-09-09T05:16:22;94695.13;;;17.09;100.00
5879;BME280;2965;42.640;23.370;2022-09-09T05:18:48;94686.09;;;17.17;100.00
5879;BME280;2965;42.640;23.370;2022-09-09T05:21:17;94703.47;;;17.06;100.00
5879;BME280;2965;42.640;23.370;2022-09-09T05:23:44;94694.09;;;17.10;100.00
5879;BME280;2965;42.640;23.370;2022-09-09T05:26:15;94681.31;;;17.07;100.00
5879;BME280;2965;42.640;23.370;2022-09-09T05:28:41;94687.25;;;17.21;100.00
5879;BME280;2965;42.640;23.370;2022-09-09T05:31:08;94682.91;;;17.26;100.00
5879;BME280;2965;42.640;23.370;2022-09-09T05:33:35;94693.06;;;17.29;100.00
5879;BME280;2965;42.640;23.370;2022-09-09T05:36:06;94696.44;;;17.36;100.00
5879;BME280;2965;42.640;23.370;2022-09-09T05:38:33;94687.53;;;17.31;100.00
5879;BME280;2965;42.640;23.370;2022-09-09T05:41:00;94702.13;;;17.40;100.00
5879;BME280;2965;42.640;23.370;2022-09-09T05:43:27;94698.66;;;17.58;100.00
5879;BME280;2965;42.640;23.370;2022-09-09T05:46:04;94687.91;;;17.71;100.00
5879;BME280;2965;42.640;23.370;2022-09-09T05:48:40;94691.75;;;17.75;100.00
5879;BME280;2965;42.640;23.370;2022-09-09T05:51:08;94714.78;;;17.86;100.00
5879;BME280;2965;42.640;23.370;2022-09-09T05:53:35;94708.75;;;17.98;100.00
5879;BME280;2965;42.640;23.370;2022-09-09T05:56:04;94711.72;;;18.20;100.00
5879;BME280;2965;42.640;23.370;2022-09-09T05:58:34;94704.97;;;18.35;100.00
5879;BME280;2965;42.640;23.370;2022-09-09T06:01:01;94700.81;;;18.39;100.00
5879;BME280;2965;42.640;23.370;2022-09-09T06:03:27;94711.53;;;18.45;100.00
5879;BME280;2965;42.640;23.370;2022-09-09T06:06:00;94708.31;;;18.43;100.00
5879;BME280;2965;42.640;23.370;2022-09-09T06:08:25;94727.56;;;18.50;100.00
5879;BME280;2965;42.640;23.370;2022-09-09T06:10:51;94723.41;;;18.54;100.00
5879;BME280;2965;42.640;23.370;2022-09-09T06:13:17;94729.31;;;18.56;100.00
5879;BME280;2965;42.640;23.370;2022-09-09T06:15:52;94731.47;;;18.59;100.00
5879;BME280;2965;42.640;23.370;2022-09-09T06:18:18;94726.59;;;18.74;100.00
5879;BME280;2965;42.640;23.370;2022-09-09T06:20:57;94721.66;;;18.89;100.00
5879;BME280;2965;42.640;23.370;2022-09-09T06:23:24;94726.25;;;18.94;100.00
5879;BME280;2965;42.640;23.370;2022-09-09T06:25:51;94729.84;;;18.88;100.00
5879;BME280;2965;42.640;23.370;2022-09-09T06:28:17;94730.88;;;18.99;100.00
5879;BME280;2965;42.640;23.370;2022-09-09T06:30:43;94729.97;;;19.05;100.00
5879;BME280;2965;42.640;23.370;2022-09-09T06:33:09;94733.75;;;19.21;100.00
5879;BME280;2965;42.640;23.370;2022-09-09T06:35:35;94732.72;;;19.33;100.00
5879;BME280;2965;42.640;23.370;2022-09-09T06:38:01;94732.72;;;19.33;100.00
5879;BME280;2965;42.640;23.370;2022-09-09T06:40:26;94718.66;;;19.33;100.00
5879;BME280;2965;42.640;23.370;2022-09-09T06:42:51;94707.59;;;19.24;100.00
5879;BME280;2965;42.640;23.370;2022-09-09T06:45:17;94713.50;;;19.26;100.00
5879;BME280;2965;42.640;23.370;2022-09-09T06:47:43;94714.75;;;19.35;100.00
5879;BME280;2965;42.640;23.370;2022-09-09T06:50:09;94718.66;;;19.45;100.00
5879;BME280;2965;42.640;23.370;2022-09-09T06:52:35;94714.94;;;19.57;100.00
5879;BME280;2965;42.640;23.370;2022-09-09T06:55:01;94720.22;;;19.69;100.00
5879;BME280;2965;42.640;23.370;2022-09-09T06:57:26;94727.81;;;19.89;100.00
5879;BME280;2965;42.640;23.370;2022-09-09T06:59:52;94732.84;;;20.02;100.00
5879;BME280;2965;42.640;23.370;2022-09-09T07:02:17;94734.31;;;20.10;100.00
5879;BME280;2965;42.640;23.370;2022-09-09T07:04:43;94738.72;;;20.04;100.00
5879;BME280;2965;42.640;23.370;2022-09-09T07:07:09;94733.13;;;20.17;100.00
5879;BME280;2965;42.640;23.370;2022-09-09T07:09:37;94740.56;;;20.32;100.00
5879;BME280;2965;42.640;23.370;2022-09-09T07:12:03;94743.88;;;20.39;100.00
5879;BME280;2965;42.640;23.370;2022-09-09T07:14:30;94737.56;;;20.57;100.00
5879;BME280;2965;42.640;23.370;2022-09-09T07:16:56;94736.47;;;20.70;100.00
5879;BME280;2965;42.640;23.370;2022-09-09T07:19:22;94731.94;;;20.71;100.00
5879;BME280;2965;42.640;23.370;2022-09-09T07:21:47;94726.88;;;20.69;100.00
5879;BME280;2965;42.640;23.370;2022-09-09T07:24:13;94730.50;;;20.80;100.00
5879;BME280;2965;42.640;23.370;2022-09-09T07:26:39;94717.94;;;20.92;100.00
5879;BME280;2965;42.640;23.370;2022-09-09T07:29:05;94725.34;;;21.07;100.00
5879;BME280;2965;42.640;23.370;2022-09-09T07:31:37;94716.22;;;21.20;100.00
5879;BME280;2965;42.640;23.370;2022-09-09T07:34:04;94720.00;;;21.40;100.00
5879;BME280;2965;42.640;23.370;2022-09-09T07:36:40;94713.78;;;21.52;100.00
5879;BME280;2965;42.640;23.370;2022-09-09T07:39:09;94704.97;;;21.51;100.00
5879;BME280;2965;42.640;23.370;2022-09-09T07:41:41;94715.41;;;21.75;100.00
5879;BME280;2965;42.640;23.370;2022-09-09T07:44:16;94716.00;;;21.82;100.00
5879;BME280;2965;42.640;23.370;2022-09-09T07:46:42;94728.72;;;21.75;100.00
5879;BME280;2965;42.640;23.370;2022-09-09T07:49:09;94726.66;;;21.82;100.00
5879;BME280;2965;42.640;23.370;2022-09-09T07:51:37;94727.06;;;21.96;100.00
5879;BME280;2965;42.640;23.370;2022-09-09T07:54:06;94726.16;;;22.07;100.00
5879;BME280;2965;42.640;23.370;2022-09-09T07:56:32;94729.00;;;22.22;100.00
5879;BME280;2965;42.640;23.370;2022-09-09T07:59:01;94726.84;;;22.46;100.00
5879;BME280;2965;42.640;23.370;2022-09-09T08:01:29;94731.16;;;22.52;100.00
5879;BME280;2965;42.640;23.370;2022-09-09T08:04:00;94723.09;;;22.74;100.00
5879;BME280;2965;42.640;23.370;2022-09-09T08:06:27;94714.91;;;22.81;100.00
5879;BME280;2965;42.640;23.370;2022-09-09T08:08:53;94715.47;;;22.88;100.00
5879;BME280;2965;42.640;23.370;2022-09-09T08:11:20;94734.78;;;22.68;100.00
5879;BME280;2965;42.640;23.370;2022-09-09T08:13:45;94724.13;;;22.68;100.00
5879;BME280;2965;42.640;23.370;2022-09-09T08:16:16;94721.28;;;23.07;100.00
5879;BME280;2965;42.640;23.370;2022-09-09T08:18:42;94723.06;;;23.33;100.00
5879;BME280;2965;42.640;23.370;2022-09-09T08:21:16;94733.28;;;23.52;100.00
5879;BME280;2965;42.640;23.370;2022-09-09T08:23:44;94723.72;;;23.61;100.00
5879;BME280;2965;42.640;23.370;2022-09-09T08:26:16;94729.88;;;23.61;100.00
5879;BME280;2965;42.640;23.370;2022-09-09T08:28:43;94727.97;;;23.52;93.97
5879;BME280;2965;42.640;23.370;2022-09-09T08:31:16;94725.25;;;23.47;93.22
5879;BME280;2965;42.640;23.370;2022-09-09T08:33:42;94725.69;;;23.71;100.00
5879;BME280;2965;42.640;23.370;2022-09-09T08:36:13;94721.22;;;23.86;100.00
5879;BME280;2965;42.640;23.370;2022-09-09T08:38:41;94715.34;;;23.95;94.69
5879;BME280;2965;42.640;23.370;2022-09-09T08:44:15;94716.78;;;24.23;92.38
5879;BME280;2965;42.640;23.370;2022-09-09T08:52:54;94713.38;;;24.48;95.80
5879;BME280;2965;42.640;23.370;2022-09-09T08:57:53;94701.66;;;24.69;98.22
5879;BME280;2965;42.640;23.370;2022-09-09T09:00:19;94710.19;;;24.56;93.86
5879;BME280;2965;42.640;23.370;2022-09-09T09:05:59;94704.88;;;24.71;93.99
5879;BME280;2965;42.640;23.370;2022-09-09T09:08:33;94715.56;;;24.71;92.41
5879;BME280;2965;42.640;23.370;2022-09-09T09:11:03;94705.41;;;24.53;88.08
5879;BME280;2965;42.640;23.370;2022-09-09T09:13:47;94708.34;;;24.66;95.08
5879;BME280;2965;42.640;23.370;2022-09-09T09:19:00;94704.63;;;25.08;84.85
5879;BME280;2965;42.640;23.370;2022-09-09T09:21:40;94701.66;;;24.95;80.05
5879;BME280;2965;42.640;23.370;2022-09-09T09:24:18;94704.06;;;24.91;80.65
5879;BME280;2965;42.640;23.370;2022-09-09T09:26:44;94693.66;;;25.15;81.50
5879;BME280;2965;42.640;23.370;2022-09-09T09:29:12;94689.34;;;25.24;87.94
5879;BME280;2965;42.640;23.370;2022-09-09T09:31:38;94703.78;;;25.23;87.07
5879;BME280;2965;42.640;23.370;2022-09-09T09:34:03;94711.84;;;25.08;83.33
5879;BME280;2965;42.640;23.370;2022-09-09T09:39:05;94701.91;;;25.39;91.19
5879;BME280;2965;42.640;23.370;2022-09-09T09:41:38;94696.22;;;25.61;84.02
5879;BME280;2965;42.640;23.370;2022-09-09T09:44:05;94695.38;;;25.86;81.25
5879;BME280;2965;42.640;23.370;2022-09-09T09:46:32;94688.47;;;26.24;78.73
5879;BME280;2965;42.640;23.370;2022-09-09T09:49:03;94686.16;;;26.52;74.29
5879;BME280;2965;42.640;23.370;2022-09-09T09:51:31;94679.25;;;26.46;72.54
5879;BME280;2965;42.640;23.370;2022-09-09T09:56:38;94680.81;;;26.86;77.12
5879;BME280;2965;42.640;23.370;2022-09-09T09:59:05;94682.22;;;26.78;76.74
5879;BME280;2965;42.640;23.370;2022-09-09T10:01:32;94669.88;;;26.43;73.80
5879;BME280;2965;42.640;23.370;2022-09-09T10:04:01;94672.66;;;26.67;85.65
5879;BME280;2965;42.640;23.370;2022-09-09T10:06:37;94672.75;;;26.57;73.80
5879;BME280;2965;42.640;23.370;2022-09-09T10:09:26;94674.09;;;26.88;82.90
5879;BME280;2965;42.640;23.370;2022-09-09T10:17:31;94683.94;;;26.20;79.67
5879;BME280;2965;42.640;23.370;2022-09-09T10:22:34;94683.03;;;26.39;93.35
5879;BME280;2965;42.640;23.370;2022-09-09T10:33:51;94689.31;;;26.98;100.00
5879;BME280;2965;42.640;23.370;2022-09-09T10:36:25;94687.38;;;27.04;98.72
5879;BME280;2965;42.640;23.370;2022-09-09T10:39:00;94681.00;;;26.95;98.74
5879;BME280;2965;42.640;23.370;2022-09-09T10:50:23;94688.13;;;26.80;91.11
5879;BME280;2965;42.640;23.370;2022-09-09T10:53:18;94692.94;;;26.83;100.00
5879;BME280;2965;42.640;23.370;2022-09-09T10:55:53;94693.44;;;26.85;100.00
5879;BME280;2965;42.640;23.370;2022-09-09T10:58:33;94682.19;;;26.83;100.00
5879;BME280;2965;42.640;23.370;2022-09-09T11:01:09;94687.50;;;26.88;100.00
5879;BME280;2965;42.640;23.370;2022-09-09T11:03:40;94670.88;;;26.86;100.00
5879;BME280;2965;42.640;23.370;2022-09-09T11:06:15;94680.31;;;26.84;100.00
5879;BME280;2965;42.640;23.370;2022-09-09T11:08:45;94685.88;;;26.92;100.00
5879;BME280;2965;42.640;23.370;2022-09-09T11:11:42;94690.25;;;26.83;100.00
5879;BME280;2965;42.640;23.370;2022-09-09T11:14:43;94684.97;;;26.68;100.00
5879;BME280;2965;42.640;23.370;2022-09-09T11:17:22;94683.53;;;26.47;100.00
5879;BME280;2965;42.640;23.370;2022-09-09T11:19:56;94683.25;;;26.48;100.00
5879;BME280;2965;42.640;23.370;2022-09-09T11:22:39;94679.75;;;26.53;100.00
5879;BME280;2965;42.640;23.370;2022-09-09T11:25:14;94665.44;;;26.62;100.00
5879;BME280;2965;42.640;23.370;2022-09-09T11:36:00;94656.16;;;26.84;100.00
5879;BME280;2965;42.640;23.370;2022-09-09T11:38:50;94639.41;;;26.97;100.00
5879;BME280;2965;42.640;23.370;2022-09-09T11:41:22;94642.25;;;27.11;100.00
5879;BME280;2965;42.640;23.370;2022-09-09T11:43:51;94642.19;;;27.16;100.00
5879;BME280;2965;42.640;23.370;2022-09-09T11:46:22;94645.97;;;27.15;100.00
5879;BME280;2965;42.640;23.370;2022-09-09T11:51:53;94616.38;;;27.20;100.00
5879;BME280;2965;42.640;23.370;2022-09-09T11:54:31;94593.44;;;27.04;94.91
5879;BME280;2965;42.640;23.370;2022-09-09T11:56:57;94590.53;;;26.71;89.37
5879;BME280;2965;42.640;23.370;2022-09-09T11:59:32;94594.41;;;26.89;95.53
5879;BME280;2965;42.640;23.370;2022-09-09T12:06:57;94614.56;;;27.15;100.00
5879;BME280;2965;42.640;23.370;2022-09-09T12:12:27;94593.88;;;27.16;94.56
5879;BME280;2965;42.640;23.370;2022-09-09T12:17:52;94588.31;;;27.31;100.00
5879;BME280;2965;42.640;23.370;2022-09-09T12:20:40;94597.16;;;27.37;100.00
5879;BME280;2965;42.640;23.370;2022-09-09T12:23:42;94592.38;;;27.53;92.40
5879;BME280;2965;42.640;23.370;2022-09-09T12:26:41;94599.94;;;27.51;92.18
5879;BME280;2965;42.640;23.370;2022-09-09T12:32:23;94585.97;;;27.49;100.00
5879;BME280;2965;42.640;23.370;2022-09-09T12:35:12;94575.91;;;27.40;97.33
5879;BME280;2965;42.640;23.370;2022-09-09T12:37:56;94576.28;;;27.29;91.21
5879;BME280;2965;42.640;23.370;2022-09-09T12:40:28;94568.53;;;27.27;92.52
5879;BME280;2965;42.640;23.370;2022-09-09T12:42:59;94562.66;;;27.44;100.00
5879;BME280;2965;42.640;23.370;2022-09-09T12:45:35;94568.19;;;27.34;94.93
5879;BME280;2965;42.640;23.370;2022-09-09T12:48:08;94563.47;;;27.45;100.00
5879;BME280;2965;42.640;23.370;2022-09-09T12:50:38;94570.47;;;27.46;100.00
5879;BME280;2965;42.640;23.370;2022-09-09T12:53:34;94572.44;;;27.59;100.00
5879;BME280;2965;42.640;23.370;2022-09-09T12:58:29;94562.66;;;28.06;95.04
5879;BME280;2965;42.640;23.370;2022-09-09T13:00:59;94560.41;;;28.32;95.83
5879;BME280;2965;42.640;23.370;2022-09-09T13:03:46;94552.53;;;28.54;89.13
5879;BME280;2965;42.640;23.370;2022-09-09T13:06:36;94544.00;;;28.66;83.84
5879;BME280;2965;42.640;23.370;2022-09-09T13:09:02;94541.50;;;28.56;76.35
5879;BME280;2965;42.640;23.370;2022-09-09T13:11:33;94539.63;;;28.37;82.56
5879;BME280;2965;42.640;23.370;2022-09-09T13:14:35;94538.09;;;28.31;75.25
5879;BME280;2965;42.640;23.370;2022-09-09T13:17:06;94534.28;;;28.32;93.47
5879;BME280;2965;42.640;23.370;2022-09-09T13:19:35;94536.97;;;28.00;78.32
5879;BME280;2965;42.640;23.370;2022-09-09T13:25:06;94531.97;;;28.45;82.76
5879;BME280;2965;42.640;23.370;2022-09-09T13:27:51;94528.03;;;28.56;81.17
5879;BME280;2965;42.640;23.370;2022-09-09T13:30:33;94516.31;;;28.79;91.12
5879;BME280;2965;42.640;23.370;2022-09-09T13:34:28;94511.91;;;28.56;92.75
5879;BME280;2965;42.640;23.370;2022-09-09T13:36:29;94514.41;;;28.66;83.60
5879;BME280;2965;42.640;23.370;2022-09-09T13:39:01;94501.53;;;28.63;77.49
5879;BME280;2965;42.640;23.370;2022-09-09T13:41:36;94507.53;;;28.60;75.21
5879;BME280;2965;42.640;23.370;2022-09-09T13:44:19;94510.34;;;28.17;76.91
5879;BME280;2965;42.640;23.370;2022-09-09T13:47:18;94519.44;;;28.02;85.81
5879;BME280;2965;42.640;23.370;2022-09-09T13:49:48;94495.59;;;28.14;87.89
5879;BME280;2965;42.640;23.370;2022-09-09T13:52:15;94476.69;;;28.20;91.17
5879;BME280;2965;42.640;23.370;2022-09-09T13:54:42;94480.25;;;28.15;87.80
5879;BME280;2965;42.640;23.370;2022-09-09T13:57:16;94484.63;;;28.11;78.59
5879;BME280;2965;42.640;23.370;2022-09-09T13:59:44;94493.03;;;28.23;80.78
5879;BME280;2965;42.640;23.370;2022-09-09T14:05:33;94488.41;;;28.10;90.85
5879;BME280;2965;42.640;23.370;2022-09-09T14:07:59;94483.88;;;28.24;93.77
5879;BME280;2965;42.640;23.370;2022-09-09T14:10:28;94499.59;;;28.17;88.31
5879;BME280;2965;42.640;23.370;2022-09-09T14:12:53;94499.13;;;28.48;90.61
5879;BME280;2965;42.640;23.370;2022-09-09T14:15:20;94504.31;;;28.58;77.17
5879;BME280;2965;42.640;23.370;2022-09-09T14:17:46;94488.63;;;28.46;84.74
5879;BME280;2965;42.640;23.370;2022-09-09T14:20:14;94495.16;;;28.59;75.68
5879;BME280;2965;42.640;23.370;2022-09-09T14:22:41;94483.66;;;28.39;77.80
5879;BME280;2965;42.640;23.370;2022-09-09T14:25:07;94471.94;;;28.16;77.85
5879;BME280;2965;42.640;23.370;2022-09-09T14:27:33;94483.28;;;28.27;83.23
5879;BME280;2965;42.640;23.370;2022-09-09T14:29:59;94474.59;;;28.35;93.99
5879;BME280;2965;42.640;23.370;2022-09-09T14:32:26;94479.19;;;28.49;94.88
5879;BME280;2965;42.640;23.370;2022-09-09T14:34:51;94475.41;;;28.17;100.00
5879;BME280;2965;42.640;23.370;2022-09-09T14:37:17;94480.19;;;28.53;100.00
5879;BME280;2965;42.640;23.370;2022-09-09T14:39:43;94477.03;;;28.64;100.00
5879;BME280;2965;42.640;23.370;2022-09-09T14:42:13;94475.25;;;28.74;100.00
5879;BME280;2965;42.640;23.370;2022-09-09T14:44:39;94486.00;;;28.74;100.00
5879;BME280;2965;42.640;23.370;2022-09-09T14:47:06;94477.22;;;28.68;100.00
5879;BME280;2965;42.640;23.370;2022-09-09T14:49:36;94470.81;;;28.50;100.00
5879;BME280;2965;42.640;23.370;2022-09-09T14:52:03;94474.00;;;28.38;100.00
5879;BME280;2965;42.640;23.370;2022-09-09T14:54:28;94467.84;;;28.19;100.00
5879;BME280;2965;42.640;23.370;2022-09-09T14:56:54;94465.75;;;28.16;100.00
5879;BME280;2965;42.640;23.370;2022-09-09T14:59:19;94472.69;;;28.03;100.00
5879;BME280;2965;42.640;23.370;2022-09-09T15:01:45;94477.66;;;28.10;100.00
5879;BME280;2965;42.640;23.370;2022-09-09T15:04:12;94475.06;;;28.05;100.00
5879;BME280;2965;42.640;23.370;2022-09-09T15:06:40;94479.59;;;28.23;100.00
5879;BME280;2965;42.640;23.370;2022-09-09T15:09:08;94476.19;;;28.36;100.00
5879;BME280;2965;42.640;23.370;2022-09-09T15:11:35;94485.28;;;28.22;100.00
5879;BME280;2965;42.640;23.370;2022-09-09T15:14:03;94489.34;;;28.19;100.00
5879;BME280;2965;42.640;23.370;2022-09-09T15:16:29;94493.78;;;28.10;100.00
5879;BME280;2965;42.640;23.370;2022-09-09T15:18:58;94507.03;;;27.87;100.00
5879;BME280;2965;42.640;23.370;2022-09-09T15:21:27;94506.19;;;27.49;100.00
5879;BME280;2965;42.640;23.370;2022-09-09T15:23:53;94503.00;;;27.28;100.00
5879;BME280;2965;42.640;23.370;2022-09-09T15:26:19;94503.41;;;27.40;100.00
5879;BME280;2965;42.640;23.370;2022-09-09T15:28:47;94499.25;;;27.48;100.00
5879;BME280;2965;42.640;23.370;2022-09-09T15:31:15;94497.56;;;27.71;100.00
5879;BME280;2965;42.640;23.370;2022-09-09T15:33:47;94496.66;;;28.00;100.00
5879;BME280;2965;42.640;23.370;2022-09-09T15:38:38;94481.47;;;28.55;100.00
5879;BME280;2965;42.640;23.370;2022-09-09T15:41:04;94482.59;;;28.68;100.00
5879;BME280;2965;42.640;23.370;2022-09-09T15:43:29;94482.59;;;28.68;100.00
5879;BME280;2965;42.640;23.370;2022-09-09T15:46:00;94482.38;;;28.51;100.00
5879;BME280;2965;42.640;23.370;2022-09-09T15:48:31;94488.53;;;28.37;100.00